createdAt,value
2022-12-19T00:00:23.013Z,10.80
2022-12-19T00:02:50.501Z,10.90
2022-12-19T00:05:18.088Z,10.90
2022-12-19T00:07:49.155Z,11.00
2022-12-19T00:10:16.670Z,11.00
2022-12-19T00:12:44.131Z,11.10
2022-12-19T00:15:11.616Z,11.10
2022-12-19T00:17:39.009Z,11.10
2022-12-19T00:20:07.152Z,11.20
2022-12-19T00:22:34.594Z,11.30
2022-12-19T00:25:02.128Z,11.30
2022-12-19T00:27:34.723Z,11.30
2022-12-19T00:30:02.575Z,11.40
2022-12-19T00:32:31.067Z,11.40
2022-12-19T00:34:58.477Z,11.40
2022-12-19T00:37:28.708Z,11.50
2022-12-19T00:39:56.932Z,11.50
2022-12-19T00:42:24.431Z,11.60
2022-12-19T00:44:51.832Z,11.60
2022-12-19T00:47:19.204Z,11.70
2022-12-19T00:49:46.589Z,11.70
2022-12-19T00:52:16.301Z,11.70
2022-12-19T00:54:43.920Z,11.80
2022-12-19T00:57:11.532Z,11.80
2022-12-19T00:59:40.853Z,11.80
2022-12-19T01:02:08.498Z,11.90
2022-12-19T01:04:41.284Z,12.00
2022-12-19T01:07:13.268Z,12.00
2022-12-19T01:09:40.833Z,12.00
2022-12-19T01:12:30.092Z,12.00
2022-12-19T01:15:04.394Z,12.10
2022-12-19T01:17:35.554Z,12.10
2022-12-19T01:20:19.117Z,12.10
2022-12-19T01:22:54.222Z,12.10
2022-12-19T01:25:21.732Z,12.20
2022-12-19T01:27:49.412Z,12.20
2022-12-19T01:30:16.896Z,12.30
2022-12-19T01:32:44.405Z,12.30
2022-12-19T01:35:14.604Z,12.30
2022-12-19T01:37:51.453Z,12.30
2022-12-19T01:40:20.055Z,12.40
2022-12-19T01:42:49.245Z,12.40
2022-12-19T01:45:17.495Z,12.40
2022-12-19T01:48:02.414Z,12.50
2022-12-19T01:50:40.782Z,12.50
2022-12-19T01:53:14.356Z,12.50
2022-12-19T01:55:44.433Z,12.50
2022-12-19T01:58:13.522Z,12.50
2022-12-19T02:00:44.269Z,12.50
2022-12-19T02:03:22.492Z,12.50
2022-12-19T02:05:52.455Z,12.50
2022-12-19T02:08:21.443Z,12.60
2022-12-19T02:10:49.734Z,12.60
2022-12-19T02:13:18.100Z,12.60
2022-12-19T02:15:59.622Z,12.70
2022-12-19T02:18:49.206Z,12.70
2022-12-19T02:21:32.082Z,12.70
2022-12-19T02:24:37.743Z,12.70
2022-12-19T02:27:05.178Z,12.70
2022-12-19T02:30:17.340Z,12.70
2022-12-19T02:32:56.468Z,12.80
2022-12-19T02:35:39.147Z,12.80
2022-12-19T02:38:10.449Z,12.80
2022-12-19T02:40:46.616Z,12.80
2022-12-19T02:43:18.761Z,12.80
2022-12-19T02:45:48.143Z,12.80
2022-12-19T02:48:19.250Z,12.80
2022-12-19T02:50:50.008Z,12.90
2022-12-19T02:53:23.631Z,12.90
2022-12-19T02:56:17.710Z,12.90
2022-12-19T02:58:54.317Z,12.90
2022-12-19T03:01:31.394Z,12.90
2022-12-19T03:04:09.292Z,12.90
2022-12-19T03:06:48.408Z,13.00
2022-12-19T03:09:20.261Z,12.90
2022-12-19T03:11:51.730Z,12.90
2022-12-19T03:14:21.226Z,12.90
2022-12-19T03:16:49.759Z,12.90
2022-12-19T03:19:17.316Z,12.90
2022-12-19T03:21:48.286Z,12.90
2022-12-19T03:24:16.633Z,13.00
2022-12-19T03:26:53.251Z,12.90
2022-12-19T03:29:34.189Z,12.90
2022-12-19T03:32:05.547Z,12.90
2022-12-19T03:34:40.123Z,12.90
2022-12-19T03:37:13.985Z,12.90
2022-12-19T03:39:43.074Z,12.90
2022-12-19T03:42:30.663Z,12.90
2022-12-19T03:45:02.027Z,12.90
2022-12-19T03:47:35.309Z,12.90
2022-12-19T03:50:03.892Z,12.90
2022-12-19T03:53:06.762Z,12.90
2022-12-19T03:55:42.664Z,13.00
2022-12-19T03:58:13.780Z,12.90
2022-12-19T04:00:47.476Z,13.00
2022-12-19T04:03:17.629Z,13.00
2022-12-19T04:05:48.007Z,12.90
2022-12-19T04:08:16.751Z,13.00
2022-12-19T04:10:51.482Z,12.90
2022-12-19T04:13:25.524Z,12.90
2022-12-19T04:16:31.258Z,12.90
2022-12-19T04:19:07.861Z,13.00
2022-12-19T04:21:46.648Z,12.90
2022-12-19T04:24:25.632Z,13.00
2022-12-19T04:26:54.844Z,13.00
2022-12-19T04:29:23.977Z,13.00
2022-12-19T04:31:51.588Z,13.00
2022-12-19T04:34:21.151Z,13.00
2022-12-19T04:36:50.380Z,13.00
2022-12-19T04:39:17.865Z,13.00
2022-12-19T04:41:45.438Z,13.00
2022-12-19T04:44:12.859Z,13.00
2022-12-19T04:46:40.341Z,13.00
2022-12-19T04:49:07.788Z,13.00
2022-12-19T04:51:35.394Z,13.10
2022-12-19T04:54:02.929Z,13.10
2022-12-19T04:56:30.386Z,13.00
2022-12-19T04:59:01.462Z,13.10
2022-12-19T05:01:29.043Z,13.10
2022-12-19T05:03:59.997Z,13.10
2022-12-19T05:06:32.445Z,13.10
2022-12-19T05:09:00.118Z,13.10
2022-12-19T05:11:27.820Z,13.30
2022-12-19T05:13:55.377Z,13.10
2022-12-19T05:16:22.870Z,13.10
2022-12-19T05:18:50.621Z,13.10
2022-12-19T05:21:18.110Z,13.10
2022-12-19T05:23:45.615Z,13.10
2022-12-19T05:26:13.403Z,13.10
2022-12-19T05:28:41.432Z,13.20
2022-12-19T05:31:11.693Z,13.20
2022-12-19T05:33:40.239Z,13.20
2022-12-19T05:36:09.090Z,13.20
2022-12-19T05:38:37.172Z,13.20
2022-12-19T05:41:15.289Z,13.20
2022-12-19T05:43:44.210Z,13.20
2022-12-19T05:46:11.999Z,13.20
2022-12-19T05:48:39.528Z,13.20
2022-12-19T05:51:07.595Z,13.20
2022-12-19T05:53:39.811Z,13.20
2022-12-19T05:56:15.882Z,13.20
2022-12-19T05:58:45.078Z,13.20
2022-12-19T06:01:18.916Z,13.30
2022-12-19T06:03:47.107Z,13.30
2022-12-19T06:06:17.870Z,13.30
2022-12-19T06:08:45.821Z,13.30
2022-12-19T06:11:14.499Z,13.30
2022-12-19T06:13:42.324Z,13.30
2022-12-19T06:16:15.919Z,13.30
2022-12-19T06:18:45.588Z,13.30
2022-12-19T06:21:16.460Z,13.30
2022-12-19T06:23:45.090Z,13.30
2022-12-19T06:26:19.173Z,13.30
2022-12-19T06:28:49.320Z,13.30
2022-12-19T06:31:18.275Z,13.30
2022-12-19T06:33:45.841Z,13.30
2022-12-19T06:36:26.561Z,13.30
2022-12-19T06:38:55.170Z,13.30
2022-12-19T06:41:41.338Z,13.30
2022-12-19T06:44:12.683Z,13.30
2022-12-19T06:46:41.312Z,13.30
2022-12-19T06:49:10.357Z,13.30
2022-12-19T06:51:38.011Z,13.30
2022-12-19T06:54:05.739Z,13.30
2022-12-19T06:56:38.222Z,13.30
2022-12-19T06:59:06.707Z,13.30
2022-12-19T07:01:52.792Z,13.30
2022-12-19T07:04:41.479Z,13.30
2022-12-19T07:07:08.987Z,13.30
2022-12-19T07:09:36.618Z,13.30
2022-12-19T07:12:04.301Z,13.30
2022-12-19T07:14:34.784Z,13.30
2022-12-19T07:17:03.349Z,13.30
2022-12-19T07:19:32.108Z,13.30
2022-12-19T07:22:01.709Z,13.30
2022-12-19T07:24:30.536Z,13.30
2022-12-19T07:26:58.521Z,13.30
2022-12-19T07:29:26.594Z,13.30
2022-12-19T07:31:54.346Z,13.30
2022-12-19T07:34:21.975Z,13.30
2022-12-19T07:36:49.549Z,13.30
2022-12-19T07:39:17.024Z,13.30
2022-12-19T07:41:44.978Z,13.30
2022-12-19T07:44:13.389Z,13.40
2022-12-19T07:46:40.949Z,13.30
2022-12-19T07:49:08.529Z,13.40
2022-12-19T07:51:36.103Z,13.30
2022-12-19T07:54:03.860Z,13.40
2022-12-19T07:56:31.366Z,13.40
2022-12-19T07:58:59.790Z,13.40
2022-12-19T08:01:28.572Z,13.40
2022-12-19T08:03:57.843Z,13.40
2022-12-19T08:06:26.221Z,13.40
2022-12-19T08:08:53.943Z,13.30
2022-12-19T08:11:30.747Z,13.40
2022-12-19T08:13:58.369Z,13.30
2022-12-19T08:16:28.022Z,13.40
2022-12-19T08:18:56.011Z,13.40
2022-12-19T08:21:24.983Z,13.40
2022-12-19T08:23:52.981Z,13.30
2022-12-19T08:26:25.478Z,13.30
2022-12-19T08:28:55.536Z,13.40
2022-12-19T08:31:25.961Z,13.30
2022-12-19T08:33:55.195Z,13.30
2022-12-19T08:36:24.273Z,13.30
2022-12-19T08:38:53.045Z,13.30
2022-12-19T08:41:21.949Z,13.30
2022-12-19T08:43:53.017Z,13.40
2022-12-19T08:46:21.058Z,13.40
2022-12-19T08:48:49.101Z,13.30
2022-12-19T08:51:18.031Z,13.30
2022-12-19T08:53:46.863Z,13.30
2022-12-19T08:56:18.013Z,13.30
2022-12-19T08:58:46.704Z,13.30
2022-12-19T09:01:19.461Z,13.30
2022-12-19T09:04:59.835Z,13.40
2022-12-19T09:06:36.098Z,13.50
2022-12-19T09:09:05.207Z,13.40
2022-12-19T09:11:33.161Z,13.40
2022-12-19T09:14:05.172Z,13.40
2022-12-19T09:16:32.788Z,13.40
2022-12-19T09:19:00.825Z,13.40
2022-12-19T09:21:29.526Z,13.40
2022-12-19T09:24:05.364Z,13.40
2022-12-19T09:26:36.144Z,13.40
2022-12-19T09:29:10.433Z,13.40
2022-12-19T09:31:47.608Z,13.40
2022-12-19T09:34:18.511Z,13.40
2022-12-19T09:36:50.550Z,13.40
2022-12-19T09:39:18.665Z,13.50
2022-12-19T09:42:03.560Z,13.50
2022-12-19T09:44:52.853Z,13.50
2022-12-19T09:47:25.021Z,13.50
2022-12-19T09:49:54.492Z,13.50
2022-12-19T09:52:33.208Z,13.50
2022-12-19T09:55:26.110Z,13.50
2022-12-19T09:57:59.889Z,13.50
2022-12-19T10:00:36.047Z,13.50
2022-12-19T10:03:14.090Z,13.50
2022-12-19T10:06:33.152Z,13.50
2022-12-19T10:11:01.366Z,13.60
2022-12-19T10:12:51.147Z,13.50
2022-12-19T10:16:00.010Z,13.50
2022-12-19T10:18:48.548Z,13.50
2022-12-19T10:22:15.730Z,13.50
2022-12-19T10:25:08.251Z,13.50
2022-12-19T10:28:18.966Z,13.50
2022-12-19T10:31:12.434Z,13.50
2022-12-19T10:34:02.251Z,13.50
2022-12-19T10:37:13.040Z,13.50
2022-12-19T10:39:55.220Z,13.50
2022-12-19T10:42:44.954Z,13.50
2022-12-19T10:45:36.974Z,13.50
2022-12-19T10:48:04.993Z,13.50
2022-12-19T10:50:32.532Z,13.50
2022-12-19T10:53:10.460Z,13.50
2022-12-19T10:55:50.472Z,13.50
2022-12-19T10:58:24.948Z,13.50
2022-12-19T11:01:29.467Z,13.50
2022-12-19T11:04:15.528Z,13.50
2022-12-19T11:07:12.459Z,13.50
2022-12-19T11:09:49.902Z,13.50
2022-12-19T11:16:55.891Z,13.50
2022-12-19T11:20:35.490Z,13.50
2022-12-19T11:27:51.269Z,13.50
2022-12-19T11:29:26.190Z,13.50
2022-12-19T11:30:43.365Z,13.50
2022-12-19T11:30:47.264Z,13.50
2022-12-19T11:32:45.049Z,13.50
2022-12-19T11:35:18.593Z,13.50
2022-12-19T11:37:55.545Z,13.50
2022-12-19T11:40:56.633Z,13.50
2022-12-19T11:43:50.737Z,13.60
2022-12-19T11:46:22.091Z,13.50
2022-12-19T11:49:09.454Z,13.50
2022-12-19T11:51:45.454Z,13.60
2022-12-19T11:54:27.772Z,13.50
2022-12-19T11:56:56.925Z,13.50
2022-12-19T11:59:30.714Z,13.50
2022-12-19T12:02:42.968Z,13.60
2022-12-19T12:05:32.069Z,13.50
2022-12-19T12:09:24.537Z,13.50
2022-12-19T12:17:18.659Z,13.50
2022-12-19T12:21:46.692Z,13.50
2022-12-19T12:31:08.392Z,13.60
2022-12-19T12:31:16.503Z,13.60
2022-12-19T12:31:29.358Z,13.60
2022-12-19T12:31:43.769Z,13.60
2022-12-19T12:35:19.209Z,13.60
2022-12-19T12:35:40.504Z,13.60
2022-12-19T12:37:55.808Z,13.60
2022-12-19T12:38:35.438Z,13.60
2022-12-19T12:41:21.988Z,13.70
2022-12-19T12:44:08.260Z,13.70
2022-12-19T12:46:46.206Z,13.70
2022-12-19T12:49:38.512Z,13.70
2022-12-19T12:52:10.555Z,13.70
2022-12-19T12:54:43.928Z,13.70
2022-12-19T12:57:36.127Z,13.70
2022-12-19T13:00:21.423Z,13.80
2022-12-19T13:03:15.641Z,13.80
2022-12-19T13:05:49.065Z,13.80
2022-12-19T13:08:40.046Z,13.80
2022-12-19T13:11:37.511Z,13.80
2022-12-19T13:14:26.478Z,13.80
2022-12-19T13:16:54.597Z,13.80
2022-12-19T13:19:28.459Z,13.80
2022-12-19T13:22:05.459Z,13.80
2022-12-19T13:24:42.004Z,13.90
2022-12-19T13:27:33.909Z,13.90
2022-12-19T13:30:01.444Z,13.90
2022-12-19T13:32:41.416Z,13.90
2022-12-19T13:35:27.142Z,13.90
2022-12-19T13:40:00.764Z,14.00
2022-12-19T13:41:46.619Z,13.90
2022-12-19T13:44:14.360Z,13.90
2022-12-19T13:46:44.174Z,13.90
2022-12-19T13:49:20.162Z,14.00
2022-12-19T13:51:51.852Z,14.00
2022-12-19T13:54:24.672Z,14.00
2022-12-19T13:56:54.145Z,14.00
2022-12-19T13:59:28.861Z,14.00
2022-12-19T14:02:05.837Z,14.00
2022-12-19T14:04:33.879Z,14.00
2022-12-19T14:07:05.619Z,14.00
2022-12-19T14:11:29.404Z,14.00
2022-12-19T14:13:47.478Z,14.00
2022-12-19T14:15:52.155Z,14.00
2022-12-19T14:18:42.688Z,14.00
2022-12-19T14:22:04.809Z,14.00
2022-12-19T14:24:19.573Z,14.00
2022-12-19T14:28:26.135Z,14.00
2022-12-19T14:30:30.533Z,14.00
2022-12-19T14:33:40.145Z,14.00
2022-12-19T14:36:10.008Z,14.00
2022-12-19T14:39:26.669Z,14.00
2022-12-19T14:41:49.010Z,13.90
2022-12-19T14:52:53.571Z,13.90
2022-12-19T14:54:15.169Z,14.00
2022-12-19T14:54:22.388Z,13.90
2022-12-19T14:54:46.832Z,13.90
2022-12-19T14:56:30.971Z,13.90
2022-12-19T14:59:00.669Z,13.90
2022-12-19T15:01:32.454Z,13.90
2022-12-19T15:04:50.710Z,13.90
2022-12-19T15:07:06.729Z,13.90
2022-12-19T15:11:08.035Z,14.00
2022-12-19T15:14:52.402Z,13.90
2022-12-19T15:16:23.239Z,14.00
2022-12-19T15:18:53.447Z,14.00
2022-12-19T15:21:21.021Z,14.00
2022-12-19T15:23:48.680Z,14.00
2022-12-19T15:26:19.994Z,14.00
2022-12-19T15:28:52.270Z,14.00
2022-12-19T15:31:28.126Z,14.00
2022-12-19T15:36:43.815Z,14.10
2022-12-19T15:39:11.412Z,14.00
2022-12-19T15:41:38.897Z,14.00
2022-12-19T15:44:10.893Z,14.00
2022-12-19T15:46:44.571Z,14.00
2022-12-19T15:49:20.136Z,14.00
2022-12-19T15:51:48.711Z,13.90
2022-12-19T15:57:04.401Z,13.90
2022-12-19T15:59:37.589Z,13.90
2022-12-19T16:02:19.160Z,13.90
2022-12-19T16:04:48.165Z,13.80
2022-12-19T16:07:22.103Z,13.90
2022-12-19T16:09:50.239Z,13.90
2022-12-19T16:12:31.632Z,13.90
2022-12-19T16:15:01.855Z,13.90
2022-12-19T16:17:32.458Z,13.80
2022-12-19T16:19:59.855Z,13.80
2022-12-19T16:22:29.457Z,13.80
2022-12-19T16:24:57.359Z,13.90
2022-12-19T16:27:28.206Z,13.80
2022-12-19T16:29:56.485Z,13.90
2022-12-19T16:32:24.676Z,13.80
2022-12-19T16:34:53.139Z,13.90
2022-12-19T16:37:20.909Z,13.90
2022-12-19T16:39:48.389Z,13.90
2022-12-19T16:42:17.372Z,13.90
2022-12-19T16:44:47.142Z,13.90
2022-12-19T16:47:17.227Z,13.90
2022-12-19T16:49:45.297Z,13.90
2022-12-19T16:52:12.871Z,13.90
2022-12-19T16:54:40.339Z,13.90
2022-12-19T16:57:19.231Z,13.90
2022-12-19T16:59:47.129Z,14.00
2022-12-19T17:02:40.869Z,14.00
2022-12-19T17:05:16.592Z,14.00
2022-12-19T17:07:44.635Z,14.00
2022-12-19T17:10:12.264Z,14.00
2022-12-19T17:12:41.593Z,14.00
2022-12-19T17:15:21.426Z,14.00
2022-12-19T17:17:49.854Z,14.00
2022-12-19T17:20:23.726Z,14.00
2022-12-19T17:22:51.243Z,14.10
2022-12-19T17:25:21.943Z,14.10
2022-12-19T17:27:50.648Z,14.10
2022-12-19T17:30:18.687Z,14.10
2022-12-19T17:32:49.183Z,14.10
2022-12-19T17:35:24.085Z,14.10
2022-12-19T17:37:57.111Z,14.10
2022-12-19T17:40:27.281Z,14.10
2022-12-19T17:42:55.154Z,14.10
2022-12-19T17:45:33.261Z,14.10
2022-12-19T17:48:03.452Z,14.10
2022-12-19T17:50:37.793Z,14.10
2022-12-19T17:53:06.402Z,14.10
2022-12-19T17:55:34.051Z,14.10
2022-12-19T17:58:01.502Z,14.10
2022-12-19T18:00:32.106Z,14.10
2022-12-19T18:03:22.888Z,14.10
2022-12-19T18:05:52.737Z,14.10
2022-12-19T18:08:31.900Z,14.10
2022-12-19T18:11:02.123Z,14.10
2022-12-19T18:13:31.158Z,14.10
2022-12-19T18:16:01.244Z,14.10
2022-12-19T18:18:34.534Z,14.10
2022-12-19T18:21:03.114Z,14.10
2022-12-19T18:23:30.965Z,14.00
2022-12-19T18:26:01.848Z,14.00
2022-12-19T18:28:30.496Z,14.10
2022-12-19T18:31:13.889Z,14.00
2022-12-19T18:33:45.399Z,14.10
2022-12-19T18:36:27.628Z,14.00
2022-12-19T18:38:56.707Z,14.00
2022-12-19T18:41:24.509Z,14.00
2022-12-19T18:43:52.246Z,14.00
2022-12-19T18:46:25.215Z,14.00
2022-12-19T18:48:52.928Z,14.00
2022-12-19T18:51:23.229Z,14.00
2022-12-19T18:53:51.685Z,14.00
2022-12-19T18:56:19.277Z,14.00
2022-12-19T18:58:46.872Z,14.00
2022-12-19T19:01:21.723Z,14.00
2022-12-19T19:03:55.581Z,14.00
2022-12-19T19:06:27.613Z,14.00
2022-12-19T19:08:58.602Z,14.00
2022-12-19T19:11:46.572Z,14.00
2022-12-19T19:14:14.510Z,14.00
2022-12-19T19:16:42.315Z,14.00
2022-12-19T19:19:14.601Z,14.00
2022-12-19T19:21:42.884Z,14.00
2022-12-19T19:24:17.102Z,14.00
2022-12-19T19:26:45.067Z,14.00
2022-12-19T19:29:14.858Z,14.00
2022-12-19T19:31:45.850Z,14.00
2022-12-19T19:34:23.696Z,14.00
2022-12-19T19:36:56.237Z,14.00
2022-12-19T19:39:24.766Z,13.90
2022-12-19T19:41:52.334Z,13.90
2022-12-19T19:44:19.880Z,13.90
2022-12-19T19:46:48.010Z,13.90
2022-12-19T19:49:15.788Z,14.00
2022-12-19T19:51:43.283Z,13.90
2022-12-19T19:54:11.511Z,13.90
2022-12-19T19:56:39.383Z,14.00
2022-12-19T19:59:07.822Z,14.00
2022-12-19T20:01:35.535Z,14.00
2022-12-19T20:04:04.367Z,14.00
2022-12-19T20:06:32.280Z,14.00
2022-12-19T20:09:00.023Z,14.00
2022-12-19T20:11:27.736Z,14.00
2022-12-19T20:13:55.266Z,14.00
2022-12-19T20:16:22.909Z,14.00
2022-12-19T20:18:52.714Z,14.00
2022-12-19T20:21:21.453Z,14.00
2022-12-19T20:23:49.510Z,14.00
2022-12-19T20:26:17.985Z,14.00
2022-12-19T20:28:49.590Z,14.00
2022-12-19T20:31:23.055Z,14.00
2022-12-19T20:33:53.152Z,14.00
2022-12-19T20:36:22.021Z,14.00
2022-12-19T20:38:50.032Z,14.00
2022-12-19T20:41:18.700Z,14.00
2022-12-19T20:43:46.320Z,14.00
2022-12-19T20:46:16.323Z,14.00
2022-12-19T20:48:45.092Z,14.00
2022-12-19T20:51:14.336Z,14.00
2022-12-19T20:53:42.946Z,14.00
2022-12-19T20:56:15.097Z,14.00
2022-12-19T20:58:43.270Z,14.00
2022-12-19T21:01:14.049Z,14.00
2022-12-19T21:03:42.255Z,14.00
2022-12-19T21:06:12.556Z,14.00
2022-12-19T21:08:41.239Z,14.00
2022-12-19T21:11:09.718Z,14.10
2022-12-19T21:13:38.686Z,14.10
2022-12-19T21:16:09.112Z,14.10
2022-12-19T21:18:38.905Z,14.10
2022-12-19T21:21:10.747Z,14.10
2022-12-19T21:23:38.244Z,14.10
2022-12-19T21:26:06.054Z,14.10
2022-12-19T21:28:34.132Z,14.10
2022-12-19T21:31:13.329Z,14.20
2022-12-19T21:33:41.122Z,14.20
2022-12-19T21:36:20.229Z,14.20
2022-12-19T21:38:52.385Z,14.20
2022-12-19T21:41:20.521Z,14.20
2022-12-19T21:43:53.791Z,14.20
2022-12-19T21:46:24.173Z,14.20
2022-12-19T21:48:53.784Z,14.20
2022-12-19T21:51:23.381Z,14.10
2022-12-19T21:53:56.034Z,14.20
2022-12-19T21:56:29.379Z,14.20
2022-12-19T21:59:04.596Z,14.20
2022-12-19T22:01:33.143Z,14.20
2022-12-19T22:04:03.063Z,14.20
2022-12-19T22:06:32.166Z,14.20
2022-12-19T22:09:00.981Z,14.20
2022-12-19T22:11:29.410Z,14.20
2022-12-19T22:13:59.591Z,14.20
2022-12-19T22:16:28.267Z,14.20
2022-12-19T22:18:56.875Z,14.10
2022-12-19T22:21:25.459Z,14.10
2022-12-19T22:24:00.101Z,14.10
2022-12-19T22:26:29.628Z,14.10
2022-12-19T22:28:57.812Z,14.10
2022-12-19T22:31:29.730Z,14.10
2022-12-19T22:34:06.010Z,14.10
2022-12-19T22:36:35.925Z,14.10
2022-12-19T22:39:06.239Z,14.10
2022-12-19T22:41:35.753Z,14.10
2022-12-19T22:44:04.310Z,14.10
2022-12-19T22:46:34.492Z,14.10
2022-12-19T22:49:05.049Z,14.10
2022-12-19T22:51:34.747Z,14.10
2022-12-19T22:54:02.828Z,14.10
2022-12-19T22:56:31.912Z,14.10
2022-12-19T22:59:02.178Z,14.10
2022-12-19T23:01:42.157Z,14.10
2022-12-19T23:04:13.466Z,14.10
2022-12-19T23:06:41.865Z,14.10
2022-12-19T23:09:12.984Z,14.10
2022-12-19T23:11:42.754Z,14.20
2022-12-19T23:14:14.633Z,14.20
2022-12-19T23:16:43.321Z,14.10
2022-12-19T23:19:11.281Z,14.10
2022-12-19T23:21:38.900Z,14.10
2022-12-19T23:24:06.849Z,14.20
2022-12-19T23:26:37.042Z,14.20
2022-12-19T23:29:10.576Z,14.20
2022-12-19T23:31:43.885Z,14.20
2022-12-19T23:34:11.771Z,14.10
2022-12-19T23:39:27.248Z,14.10
2022-12-19T23:41:54.729Z,14.10
2022-12-19T23:44:22.373Z,14.10
2022-12-19T23:46:49.783Z,14.10
2022-12-19T23:49:17.518Z,14.10
2022-12-19T23:51:45.082Z,14.10
2022-12-19T23:54:12.547Z,14.00
2022-12-19T23:56:39.984Z,14.10
2022-12-19T23:59:07.687Z,14.10
